sensor_id;sensor_type;location;lat;lon;timestamp;P1;durP1;ratioP1;P2;durP2;ratioP2
42912;SDS011;50720;54.324;18.558;2023-03-13T00:01:44;62.50;;;26.08;;
42912;SDS011;50720;54.324;18.558;2023-03-13T00:04:17;59.72;;;25.75;;
42912;SDS011;50720;54.324;18.558;2023-03-13T00:06:46;70.85;;;26.20;;
42912;SDS011;50720;54.324;18.558;2023-03-13T00:09:16;55.90;;;25.23;;
42912;SDS011;50720;54.324;18.558;2023-03-13T00:11:46;64.90;;;25.50;;
42912;SDS011;50720;54.324;18.558;2023-03-13T00:14:16;50.45;;;22.55;;
42912;SDS011;50720;54.324;18.558;2023-03-13T00:16:45;54.65;;;22.08;;
42912;SDS011;50720;54.324;18.558;2023-03-13T00:19:17;52.72;;;23.42;;
42912;SDS011;50720;54.324;18.558;2023-03-13T00:21:46;59.42;;;22.88;;
42912;SDS011;50720;54.324;18.558;2023-03-13T00:24:16;49.55;;;22.20;;
42912;SDS011;50720;54.324;18.558;2023-03-13T00:26:45;47.72;;;19.80;;
42912;SDS011;50720;54.324;18.558;2023-03-13T00:29:15;48.67;;;18.45;;
42912;SDS011;50720;54.324;18.558;2023-03-13T00:31:45;41.75;;;16.52;;
42912;SDS011;50720;54.324;18.558;2023-03-13T00:34:14;39.53;;;16.02;;
42912;SDS011;50720;54.324;18.558;2023-03-13T00:36:45;34.40;;;14.25;;
42912;SDS011;50720;54.324;18.558;2023-03-13T00:39:15;46.60;;;14.80;;
42912;SDS011;50720;54.324;18.558;2023-03-13T00:41:45;36.97;;;14.57;;
42912;SDS011;50720;54.324;18.558;2023-03-13T00:44:16;27.35;;;12.82;;
42912;SDS011;50720;54.324;18.558;2023-03-13T00:46:45;30.92;;;12.65;;
42912;SDS011;50720;54.324;18.558;2023-03-13T00:49:17;31.02;;;12.00;;
42912;SDS011;50720;54.324;18.558;2023-03-13T00:51:46;31.77;;;13.05;;
42912;SDS011;50720;54.324;18.558;2023-03-13T00:54:16;34.30;;;14.35;;
42912;SDS011;50720;54.324;18.558;2023-03-13T00:56:45;27.98;;;12.85;;
42912;SDS011;50720;54.324;18.558;2023-03-13T00:59:15;38.35;;;13.63;;
42912;SDS011;50720;54.324;18.558;2023-03-13T01:01:44;28.50;;;11.85;;
42912;SDS011;50720;54.324;18.558;2023-03-13T01:04:16;29.13;;;11.38;;
42912;SDS011;50720;54.324;18.558;2023-03-13T01:06:46;27.55;;;10.13;;
42912;SDS011;50720;54.324;18.558;2023-03-13T01:09:16;21.15;;;10.32;;
42912;SDS011;50720;54.324;18.558;2023-03-13T01:11:46;21.98;;;11.18;;
42912;SDS011;50720;54.324;18.558;2023-03-13T01:14:17;29.13;;;11.03;;
42912;SDS011;50720;54.324;18.558;2023-03-13T01:16:47;24.65;;;10.70;;
42912;SDS011;50720;54.324;18.558;2023-03-13T01:19:19;26.95;;;11.30;;
42912;SDS011;50720;54.324;18.558;2023-03-13T01:21:48;23.23;;;9.70;;
42912;SDS011;50720;54.324;18.558;2023-03-13T01:24:18;24.05;;;9.55;;
42912;SDS011;50720;54.324;18.558;2023-03-13T01:26:48;28.23;;;10.07;;
42912;SDS011;50720;54.324;18.558;2023-03-13T01:29:18;21.42;;;9.63;;
42912;SDS011;50720;54.324;18.558;2023-03-13T01:31:48;32.95;;;11.77;;
42912;SDS011;50720;54.324;18.558;2023-03-13T01:34:19;29.17;;;9.93;;
42912;SDS011;50720;54.324;18.558;2023-03-13T01:36:48;21.17;;;10.40;;
42912;SDS011;50720;54.324;18.558;2023-03-13T01:39:18;24.27;;;10.07;;
42912;SDS011;50720;54.324;18.558;2023-03-13T01:41:48;20.80;;;10.38;;
42912;SDS011;50720;54.324;18.558;2023-03-13T01:44:20;23.80;;;10.32;;
42912;SDS011;50720;54.324;18.558;2023-03-13T01:46:50;25.52;;;11.32;;
42912;SDS011;50720;54.324;18.558;2023-03-13T01:49:22;23.47;;;9.17;;
42912;SDS011;50720;54.324;18.558;2023-03-13T01:51:56;22.38;;;9.82;;
42912;SDS011;50720;54.324;18.558;2023-03-13T01:54:30;26.02;;;10.55;;
42912;SDS011;50720;54.324;18.558;2023-03-13T01:57:05;27.60;;;10.80;;
42912;SDS011;50720;54.324;18.558;2023-03-13T01:59:43;24.27;;;10.10;;
42912;SDS011;50720;54.324;18.558;2023-03-13T02:02:14;24.13;;;9.05;;
42912;SDS011;50720;54.324;18.558;2023-03-13T02:04:47;21.17;;;10.77;;
42912;SDS011;50720;54.324;18.558;2023-03-13T02:07:20;23.88;;;10.18;;
42912;SDS011;50720;54.324;18.558;2023-03-13T02:09:55;17.85;;;8.75;;
42912;SDS011;50720;54.324;18.558;2023-03-13T02:12:25;26.52;;;11.93;;
42912;SDS011;50720;54.324;18.558;2023-03-13T02:15:00;22.70;;;10.25;;
42912;SDS011;50720;54.324;18.558;2023-03-13T02:17:34;22.30;;;9.38;;
42912;SDS011;50720;54.324;18.558;2023-03-13T02:20:08;26.17;;;10.20;;
42912;SDS011;50720;54.324;18.558;2023-03-13T02:22:40;15.30;;;8.95;;
42912;SDS011;50720;54.324;18.558;2023-03-13T02:25:16;23.30;;;9.27;;
42912;SDS011;50720;54.324;18.558;2023-03-13T02:27:56;17.75;;;9.90;;
42912;SDS011;50720;54.324;18.558;2023-03-13T02:30:28;21.67;;;10.35;;
42912;SDS011;50720;54.324;18.558;2023-03-13T02:32:58;23.00;;;10.43;;
42912;SDS011;50720;54.324;18.558;2023-03-13T02:35:29;24.73;;;11.40;;
42912;SDS011;50720;54.324;18.558;2023-03-13T02:38:00;18.90;;;10.23;;
42912;SDS011;50720;54.324;18.558;2023-03-13T02:40:34;21.17;;;9.85;;
42912;SDS011;50720;54.324;18.558;2023-03-13T02:43:06;23.70;;;10.65;;
42912;SDS011;50720;54.324;18.558;2023-03-13T02:45:39;22.38;;;9.35;;
42912;SDS011;50720;54.324;18.558;2023-03-13T02:48:08;24.65;;;10.68;;
42912;SDS011;50720;54.324;18.558;2023-03-13T02:50:38;28.08;;;12.65;;
42912;SDS011;50720;54.324;18.558;2023-03-13T02:53:07;27.33;;;10.95;;
42912;SDS011;50720;54.324;18.558;2023-03-13T02:55:39;22.58;;;10.18;;
42912;SDS011;50720;54.324;18.558;2023-03-13T02:58:09;23.25;;;10.13;;
42912;SDS011;50720;54.324;18.558;2023-03-13T03:00:39;22.08;;;10.10;;
42912;SDS011;50720;54.324;18.558;2023-03-13T03:03:09;23.63;;;9.73;;
42912;SDS011;50720;54.324;18.558;2023-03-13T03:05:39;21.67;;;10.82;;
42912;SDS011;50720;54.324;18.558;2023-03-13T03:08:09;20.65;;;9.27;;
42912;SDS011;50720;54.324;18.558;2023-03-13T03:10:40;21.67;;;10.93;;
42912;SDS011;50720;54.324;18.558;2023-03-13T03:13:09;25.13;;;10.05;;
42912;SDS011;50720;54.324;18.558;2023-03-13T03:15:39;20.85;;;9.95;;
42912;SDS011;50720;54.324;18.558;2023-03-13T03:18:08;28.38;;;9.93;;
42912;SDS011;50720;54.324;18.558;2023-03-13T03:20:38;23.88;;;10.30;;
42912;SDS011;50720;54.324;18.558;2023-03-13T03:23:08;28.25;;;11.82;;
42912;SDS011;50720;54.324;18.558;2023-03-13T03:25:38;24.77;;;11.10;;
42912;SDS011;50720;54.324;18.558;2023-03-13T03:28:08;23.40;;;11.20;;
42912;SDS011;50720;54.324;18.558;2023-03-13T03:30:38;26.77;;;10.27;;
42912;SDS011;50720;54.324;18.558;2023-03-13T03:33:08;19.65;;;9.07;;
42912;SDS011;50720;54.324;18.558;2023-03-13T03:35:38;18.53;;;9.17;;
42912;SDS011;50720;54.324;18.558;2023-03-13T03:38:07;19.33;;;10.13;;
42912;SDS011;50720;54.324;18.558;2023-03-13T03:40:37;23.38;;;10.48;;
42912;SDS011;50720;54.324;18.558;2023-03-13T03:43:08;25.10;;;11.98;;
42912;SDS011;50720;54.324;18.558;2023-03-13T03:45:38;18.77;;;9.80;;
42912;SDS011;50720;54.324;18.558;2023-03-13T03:48:08;22.00;;;9.88;;
42912;SDS011;50720;54.324;18.558;2023-03-13T03:50:38;22.02;;;9.57;;
42912;SDS011;50720;54.324;18.558;2023-03-13T03:53:07;21.92;;;9.82;;
42912;SDS011;50720;54.324;18.558;2023-03-13T03:55:37;27.70;;;11.18;;
42912;SDS011;50720;54.324;18.558;2023-03-13T03:58:08;23.88;;;9.82;;
42912;SDS011;50720;54.324;18.558;2023-03-13T04:00:38;19.60;;;10.73;;
42912;SDS011;50720;54.324;18.558;2023-03-13T04:03:11;20.13;;;8.82;;
42912;SDS011;50720;54.324;18.558;2023-03-13T04:05:42;21.27;;;9.95;;
42912;SDS011;50720;54.324;18.558;2023-03-13T04:08:11;20.80;;;9.77;;
42912;SDS011;50720;54.324;18.558;2023-03-13T04:10:41;24.73;;;11.05;;
42912;SDS011;50720;54.324;18.558;2023-03-13T04:13:12;19.52;;;9.90;;
42912;SDS011;50720;54.324;18.558;2023-03-13T04:15:42;15.68;;;8.38;;
42912;SDS011;50720;54.324;18.558;2023-03-13T04:18:11;16.65;;;9.00;;
42912;SDS011;50720;54.324;18.558;2023-03-13T04:20:43;18.45;;;9.35;;
42912;SDS011;50720;54.324;18.558;2023-03-13T04:23:12;23.42;;;8.88;;
42912;SDS011;50720;54.324;18.558;2023-03-13T04:25:42;16.90;;;8.93;;
42912;SDS011;50720;54.324;18.558;2023-03-13T04:28:13;28.48;;;8.90;;
42912;SDS011;50720;54.324;18.558;2023-03-13T04:30:43;18.50;;;8.10;;
42912;SDS011;50720;54.324;18.558;2023-03-13T04:33:13;24.95;;;8.82;;
42912;SDS011;50720;54.324;18.558;2023-03-13T04:35:43;19.88;;;9.30;;
42912;SDS011;50720;54.324;18.558;2023-03-13T04:38:12;21.27;;;10.23;;
42912;SDS011;50720;54.324;18.558;2023-03-13T04:40:42;21.10;;;8.02;;
42912;SDS011;50720;54.324;18.558;2023-03-13T04:43:14;17.63;;;8.95;;
42912;SDS011;50720;54.324;18.558;2023-03-13T04:45:43;16.90;;;8.40;;
42912;SDS011;50720;54.324;18.558;2023-03-13T04:48:13;18.55;;;7.88;;
42912;SDS011;50720;54.324;18.558;2023-03-13T04:50:43;21.00;;;10.23;;
42912;SDS011;50720;54.324;18.558;2023-03-13T04:53:13;20.17;;;8.60;;
42912;SDS011;50720;54.324;18.558;2023-03-13T04:55:43;22.83;;;10.95;;
42912;SDS011;50720;54.324;18.558;2023-03-13T04:58:15;20.60;;;9.77;;
42912;SDS011;50720;54.324;18.558;2023-03-13T05:00:45;21.10;;;10.80;;
42912;SDS011;50720;54.324;18.558;2023-03-13T05:03:14;20.73;;;10.45;;
42912;SDS011;50720;54.324;18.558;2023-03-13T05:05:44;22.27;;;11.15;;
42912;SDS011;50720;54.324;18.558;2023-03-13T05:08:14;22.90;;;10.07;;
42912;SDS011;50720;54.324;18.558;2023-03-13T05:10:43;23.52;;;12.32;;
42912;SDS011;50720;54.324;18.558;2023-03-13T05:13:15;23.40;;;9.98;;
42912;SDS011;50720;54.324;18.558;2023-03-13T05:15:45;25.42;;;11.07;;
42912;SDS011;50720;54.324;18.558;2023-03-13T05:18:15;28.15;;;9.82;;
42912;SDS011;50720;54.324;18.558;2023-03-13T05:20:44;23.63;;;11.40;;
42912;SDS011;50720;54.324;18.558;2023-03-13T05:23:14;22.38;;;9.85;;
42912;SDS011;50720;54.324;18.558;2023-03-13T05:25:44;31.38;;;11.75;;
42912;SDS011;50720;54.324;18.558;2023-03-13T05:28:13;22.60;;;10.15;;
42912;SDS011;50720;54.324;18.558;2023-03-13T05:30:45;26.83;;;12.77;;
42912;SDS011;50720;54.324;18.558;2023-03-13T05:33:14;23.58;;;11.80;;
42912;SDS011;50720;54.324;18.558;2023-03-13T05:38:14;26.73;;;10.57;;
42912;SDS011;50720;54.324;18.558;2023-03-13T05:40:45;27.73;;;12.48;;
42912;SDS011;50720;54.324;18.558;2023-03-13T05:43:16;29.70;;;12.63;;
42912;SDS011;50720;54.324;18.558;2023-03-13T05:45:46;30.67;;;12.52;;
42912;SDS011;50720;54.324;18.558;2023-03-13T05:48:15;30.33;;;15.65;;
42912;SDS011;50720;54.324;18.558;2023-03-13T05:50:45;30.38;;;13.32;;
42912;SDS011;50720;54.324;18.558;2023-03-13T05:53:14;27.65;;;12.95;;
42912;SDS011;50720;54.324;18.558;2023-03-13T05:55:44;30.90;;;13.15;;
42912;SDS011;50720;54.324;18.558;2023-03-13T05:58:13;28.90;;;13.50;;
42912;SDS011;50720;54.324;18.558;2023-03-13T06:00:45;30.20;;;12.85;;
42912;SDS011;50720;54.324;18.558;2023-03-13T06:03:14;30.95;;;14.90;;
42912;SDS011;50720;54.324;18.558;2023-03-13T06:05:44;25.77;;;13.77;;
42912;SDS011;50720;54.324;18.558;2023-03-13T06:08:14;33.67;;;14.02;;
42912;SDS011;50720;54.324;18.558;2023-03-13T06:10:46;26.95;;;12.57;;
42912;SDS011;50720;54.324;18.558;2023-03-13T06:13:17;32.78;;;15.68;;
42912;SDS011;50720;54.324;18.558;2023-03-13T06:15:50;40.63;;;15.80;;
42912;SDS011;50720;54.324;18.558;2023-03-13T06:18:20;32.13;;;14.63;;
42912;SDS011;50720;54.324;18.558;2023-03-13T06:20:54;32.58;;;13.50;;
42912;SDS011;50720;54.324;18.558;2023-03-13T06:23:24;32.28;;;14.82;;
42912;SDS011;50720;54.324;18.558;2023-03-13T06:25:55;37.30;;;14.77;;
42912;SDS011;50720;54.324;18.558;2023-03-13T06:28:26;34.20;;;16.10;;
42912;SDS011;50720;54.324;18.558;2023-03-13T06:30:59;37.30;;;15.38;;
42912;SDS011;50720;54.324;18.558;2023-03-13T06:33:29;35.65;;;16.58;;
42912;SDS011;50720;54.324;18.558;2023-03-13T06:35:59;28.67;;;14.95;;
42912;SDS011;50720;54.324;18.558;2023-03-13T06:38:29;34.25;;;15.23;;
42912;SDS011;50720;54.324;18.558;2023-03-13T06:40:59;37.53;;;16.15;;
42912;SDS011;50720;54.324;18.558;2023-03-13T06:43:30;33.95;;;14.80;;
42912;SDS011;50720;54.324;18.558;2023-03-13T06:46:02;29.48;;;14.88;;
42912;SDS011;50720;54.324;18.558;2023-03-13T06:48:32;41.55;;;15.05;;
42912;SDS011;50720;54.324;18.558;2023-03-13T06:51:02;27.48;;;13.90;;
42912;SDS011;50720;54.324;18.558;2023-03-13T06:53:32;36.15;;;14.10;;
42912;SDS011;50720;54.324;18.558;2023-03-13T06:56:02;35.25;;;16.20;;
42912;SDS011;50720;54.324;18.558;2023-03-13T06:58:33;36.80;;;16.00;;
42912;SDS011;50720;54.324;18.558;2023-03-13T07:01:05;29.88;;;14.25;;
42912;SDS011;50720;54.324;18.558;2023-03-13T07:03:35;36.70;;;15.57;;
42912;SDS011;50720;54.324;18.558;2023-03-13T07:06:06;38.22;;;16.00;;
42912;SDS011;50720;54.324;18.558;2023-03-13T07:08:36;36.05;;;16.20;;
42912;SDS011;50720;54.324;18.558;2023-03-13T07:11:08;37.33;;;15.38;;
42912;SDS011;50720;54.324;18.558;2023-03-13T07:13:40;42.92;;;17.88;;
42912;SDS011;50720;54.324;18.558;2023-03-13T07:16:12;35.30;;;15.32;;
42912;SDS011;50720;54.324;18.558;2023-03-13T07:18:42;34.00;;;15.02;;
42912;SDS011;50720;54.324;18.558;2023-03-13T07:21:12;35.70;;;14.27;;
42912;SDS011;50720;54.324;18.558;2023-03-13T07:23:42;32.22;;;14.80;;
42912;SDS011;50720;54.324;18.558;2023-03-13T07:26:13;38.08;;;13.20;;
42912;SDS011;50720;54.324;18.558;2023-03-13T07:28:45;29.40;;;13.30;;
42912;SDS011;50720;54.324;18.558;2023-03-13T07:31:15;35.38;;;13.38;;
42912;SDS011;50720;54.324;18.558;2023-03-13T07:33:46;28.17;;;11.98;;
42912;SDS011;50720;54.324;18.558;2023-03-13T07:36:18;27.83;;;11.25;;
42912;SDS011;50720;54.324;18.558;2023-03-13T07:38:48;30.27;;;13.00;;
42912;SDS011;50720;54.324;18.558;2023-03-13T07:41:19;29.83;;;12.10;;
42912;SDS011;50720;54.324;18.558;2023-03-13T07:43:50;25.63;;;11.93;;
42912;SDS011;50720;54.324;18.558;2023-03-13T07:46:19;24.23;;;11.95;;
42912;SDS011;50720;54.324;18.558;2023-03-13T07:48:49;21.40;;;11.15;;
42912;SDS011;50720;54.324;18.558;2023-03-13T07:51:19;23.63;;;13.20;;
42912;SDS011;50720;54.324;18.558;2023-03-13T07:54:08;23.08;;;11.00;;
42912;SDS011;50720;54.324;18.558;2023-03-13T07:56:38;21.90;;;11.55;;
42912;SDS011;50720;54.324;18.558;2023-03-13T07:59:10;26.98;;;12.13;;
42912;SDS011;50720;54.324;18.558;2023-03-13T08:01:40;20.65;;;10.90;;
42912;SDS011;50720;54.324;18.558;2023-03-13T08:04:11;22.95;;;11.95;;
42912;SDS011;50720;54.324;18.558;2023-03-13T08:06:41;22.42;;;10.55;;
42912;SDS011;50720;54.324;18.558;2023-03-13T08:09:11;27.08;;;13.85;;
42912;SDS011;50720;54.324;18.558;2023-03-13T08:11:40;25.15;;;12.40;;
42912;SDS011;50720;54.324;18.558;2023-03-13T08:14:12;23.27;;;11.77;;
42912;SDS011;50720;54.324;18.558;2023-03-13T08:16:42;30.27;;;12.43;;
42912;SDS011;50720;54.324;18.558;2023-03-13T08:19:12;26.13;;;12.13;;
42912;SDS011;50720;54.324;18.558;2023-03-13T08:21:42;24.70;;;12.07;;
42912;SDS011;50720;54.324;18.558;2023-03-13T08:24:11;47.47;;;15.73;;
42912;SDS011;50720;54.324;18.558;2023-03-13T08:26:41;26.48;;;12.90;;
42912;SDS011;50720;54.324;18.558;2023-03-13T08:29:13;29.73;;;13.55;;
42912;SDS011;50720;54.324;18.558;2023-03-13T08:31:43;28.17;;;13.60;;
42912;SDS011;50720;54.324;18.558;2023-03-13T08:34:14;28.60;;;12.88;;
42912;SDS011;50720;54.324;18.558;2023-03-13T08:36:45;25.55;;;13.82;;
42912;SDS011;50720;54.324;18.558;2023-03-13T08:39:15;27.33;;;13.98;;
42912;SDS011;50720;54.324;18.558;2023-03-13T08:41:47;30.95;;;13.95;;
42912;SDS011;50720;54.324;18.558;2023-03-13T08:44:18;29.35;;;13.52;;
42912;SDS011;50720;54.324;18.558;2023-03-13T08:46:48;28.77;;;14.15;;
42912;SDS011;50720;54.324;18.558;2023-03-13T08:49:18;27.97;;;13.97;;
42912;SDS011;50720;54.324;18.558;2023-03-13T08:51:49;28.45;;;14.70;;
42912;SDS011;50720;54.324;18.558;2023-03-13T08:54:19;36.20;;;15.30;;
42912;SDS011;50720;54.324;18.558;2023-03-13T08:56:49;37.95;;;18.17;;
42912;SDS011;50720;54.324;18.558;2023-03-13T08:59:20;32.40;;;17.00;;
42912;SDS011;50720;54.324;18.558;2023-03-13T09:01:50;39.75;;;18.83;;
42912;SDS011;50720;54.324;18.558;2023-03-13T09:04:19;37.45;;;17.33;;
42912;SDS011;50720;54.324;18.558;2023-03-13T09:06:49;42.10;;;18.60;;
42912;SDS011;50720;54.324;18.558;2023-03-13T09:09:19;37.08;;;16.95;;
42912;SDS011;50720;54.324;18.558;2023-03-13T09:11:51;39.25;;;17.27;;
42912;SDS011;50720;54.324;18.558;2023-03-13T09:14:21;44.55;;;19.73;;
42912;SDS011;50720;54.324;18.558;2023-03-13T09:16:51;38.13;;;18.40;;
42912;SDS011;50720;54.324;18.558;2023-03-13T09:19:22;35.78;;;18.80;;
42912;SDS011;50720;54.324;18.558;2023-03-13T09:21:52;41.80;;;18.35;;
42912;SDS011;50720;54.324;18.558;2023-03-13T09:24:21;36.47;;;18.38;;
42912;SDS011;50720;54.324;18.558;2023-03-13T09:26:51;32.92;;;18.65;;
42912;SDS011;50720;54.324;18.558;2023-03-13T09:29:28;44.35;;;19.40;;
42912;SDS011;50720;54.324;18.558;2023-03-13T09:31:59;33.85;;;17.40;;
42912;SDS011;50720;54.324;18.558;2023-03-13T09:34:29;34.03;;;16.80;;
42912;SDS011;50720;54.324;18.558;2023-03-13T09:37:00;32.08;;;16.75;;
42912;SDS011;50720;54.324;18.558;2023-03-13T09:39:30;31.98;;;17.27;;
42912;SDS011;50720;54.324;18.558;2023-03-13T09:42:01;36.85;;;18.52;;
42912;SDS011;50720;54.324;18.558;2023-03-13T09:44:39;33.25;;;17.73;;
42912;SDS011;50720;54.324;18.558;2023-03-13T09:47:17;36.72;;;17.30;;
42912;SDS011;50720;54.324;18.558;2023-03-13T09:49:51;42.80;;;19.23;;
42912;SDS011;50720;54.324;18.558;2023-03-13T09:52:23;39.75;;;19.90;;
42912;SDS011;50720;54.324;18.558;2023-03-13T09:54:56;40.85;;;19.65;;
42912;SDS011;50720;54.324;18.558;2023-03-13T09:57:30;41.90;;;19.65;;
42912;SDS011;50720;54.324;18.558;2023-03-13T10:00:05;41.42;;;18.48;;
42912;SDS011;50720;54.324;18.558;2023-03-13T10:02:42;37.38;;;19.98;;
42912;SDS011;50720;54.324;18.558;2023-03-13T10:05:14;31.13;;;18.02;;
42912;SDS011;50720;54.324;18.558;2023-03-13T10:07:47;35.25;;;18.48;;
42912;SDS011;50720;54.324;18.558;2023-03-13T10:10:18;31.58;;;17.95;;
42912;SDS011;50720;54.324;18.558;2023-03-13T10:12:58;32.75;;;18.35;;
42912;SDS011;50720;54.324;18.558;2023-03-13T10:15:40;28.40;;;15.80;;
42912;SDS011;50720;54.324;18.558;2023-03-13T10:18:15;31.48;;;16.98;;
42912;SDS011;50720;54.324;18.558;2023-03-13T10:20:48;30.13;;;17.15;;
42912;SDS011;50720;54.324;18.558;2023-03-13T10:23:21;31.75;;;16.17;;
42912;SDS011;50720;54.324;18.558;2023-03-13T10:25:57;30.33;;;15.15;;
42912;SDS011;50720;54.324;18.558;2023-03-13T10:28:27;25.08;;;14.98;;
42912;SDS011;50720;54.324;18.558;2023-03-13T10:31:00;26.10;;;14.50;;
42912;SDS011;50720;54.324;18.558;2023-03-13T10:33:34;23.98;;;14.25;;
42912;SDS011;50720;54.324;18.558;2023-03-13T10:36:06;25.65;;;13.70;;
42912;SDS011;50720;54.324;18.558;2023-03-13T10:38:48;28.88;;;15.23;;
42912;SDS011;50720;54.324;18.558;2023-03-13T10:43:51;25.67;;;14.43;;
42912;SDS011;50720;54.324;18.558;2023-03-13T10:46:28;28.42;;;15.10;;
42912;SDS011;50720;54.324;18.558;2023-03-13T10:48:59;24.48;;;14.13;;
42912;SDS011;50720;54.324;18.558;2023-03-13T10:51:33;31.08;;;14.85;;
42912;SDS011;50720;54.324;18.558;2023-03-13T10:54:15;24.20;;;13.65;;
42912;SDS011;50720;54.324;18.558;2023-03-13T10:56:49;22.27;;;13.57;;
42912;SDS011;50720;54.324;18.558;2023-03-13T10:59:22;24.90;;;14.43;;
42912;SDS011;50720;54.324;18.558;2023-03-13T11:04:29;24.95;;;12.25;;
42912;SDS011;50720;54.324;18.558;2023-03-13T11:07:01;26.80;;;14.27;;
42912;SDS011;50720;54.324;18.558;2023-03-13T11:09:32;25.15;;;14.85;;
42912;SDS011;50720;54.324;18.558;2023-03-13T11:12:02;20.77;;;13.10;;
42912;SDS011;50720;54.324;18.558;2023-03-13T11:14:35;21.48;;;13.65;;
42912;SDS011;50720;54.324;18.558;2023-03-13T11:17:10;23.42;;;14.07;;
42912;SDS011;50720;54.324;18.558;2023-03-13T11:19:55;24.05;;;13.43;;
42912;SDS011;50720;54.324;18.558;2023-03-13T11:22:36;23.90;;;14.43;;
42912;SDS011;50720;54.324;18.558;2023-03-13T11:25:18;25.63;;;14.52;;
42912;SDS011;50720;54.324;18.558;2023-03-13T11:27:54;29.08;;;15.15;;
42912;SDS011;50720;54.324;18.558;2023-03-13T11:33:27;30.83;;;16.35;;
42912;SDS011;50720;54.324;18.558;2023-03-13T11:36:05;30.13;;;14.73;;
42912;SDS011;50720;54.324;18.558;2023-03-13T11:38:42;31.13;;;15.45;;
42912;SDS011;50720;54.324;18.558;2023-03-13T11:41:20;32.78;;;16.25;;
42912;SDS011;50720;54.324;18.558;2023-03-13T11:46:43;31.05;;;14.63;;
42912;SDS011;50720;54.324;18.558;2023-03-13T11:52:30;30.52;;;15.73;;
42912;SDS011;50720;54.324;18.558;2023-03-13T11:55:19;26.02;;;15.10;;
42912;SDS011;50720;54.324;18.558;2023-03-13T11:58:01;30.70;;;15.65;;
42912;SDS011;50720;54.324;18.558;2023-03-13T12:00:57;27.08;;;16.02;;
42912;SDS011;50720;54.324;18.558;2023-03-13T12:03:31;28.92;;;14.95;;
42912;SDS011;50720;54.324;18.558;2023-03-13T12:06:10;23.42;;;15.55;;
42912;SDS011;50720;54.324;18.558;2023-03-13T12:08:56;24.70;;;14.90;;
42912;SDS011;50720;54.324;18.558;2023-03-13T12:11:31;29.08;;;16.58;;
42912;SDS011;50720;54.324;18.558;2023-03-13T12:14:05;27.40;;;14.90;;
42912;SDS011;50720;54.324;18.558;2023-03-13T12:16:41;21.90;;;13.98;;
42912;SDS011;50720;54.324;18.558;2023-03-13T12:19:16;28.90;;;14.50;;
42912;SDS011;50720;54.324;18.558;2023-03-13T12:21:50;28.02;;;16.75;;
42912;SDS011;50720;54.324;18.558;2023-03-13T12:24:24;28.92;;;16.42;;
42912;SDS011;50720;54.324;18.558;2023-03-13T12:26:59;27.73;;;17.08;;
42912;SDS011;50720;54.324;18.558;2023-03-13T12:29:37;28.67;;;16.77;;
42912;SDS011;50720;54.324;18.558;2023-03-13T12:32:13;28.00;;;17.52;;
42912;SDS011;50720;54.324;18.558;2023-03-13T12:34:53;29.52;;;16.63;;
42912;SDS011;50720;54.324;18.558;2023-03-13T12:37:32;28.95;;;15.95;;
42912;SDS011;50720;54.324;18.558;2023-03-13T12:40:11;29.60;;;16.93;;
42912;SDS011;50720;54.324;18.558;2023-03-13T12:42:48;29.38;;;16.48;;
42912;SDS011;50720;54.324;18.558;2023-03-13T12:45:24;32.30;;;15.98;;
42912;SDS011;50720;54.324;18.558;2023-03-13T12:51:01;24.20;;;14.80;;
42912;SDS011;50720;54.324;18.558;2023-03-13T12:57:05;25.17;;;14.80;;
42912;SDS011;50720;54.324;18.558;2023-03-13T12:59:46;31.30;;;17.75;;
42912;SDS011;50720;54.324;18.558;2023-03-13T13:02:20;30.45;;;16.52;;
42912;SDS011;50720;54.324;18.558;2023-03-13T13:04:52;29.80;;;14.88;;
42912;SDS011;50720;54.324;18.558;2023-03-13T13:07:24;27.20;;;14.88;;
42912;SDS011;50720;54.324;18.558;2023-03-13T13:10:03;28.45;;;16.92;;
42912;SDS011;50720;54.324;18.558;2023-03-13T13:12:47;29.30;;;16.02;;
42912;SDS011;50720;54.324;18.558;2023-03-13T13:15:59;26.90;;;15.50;;
42912;SDS011;50720;54.324;18.558;2023-03-13T13:18:32;28.95;;;17.25;;
42912;SDS011;50720;54.324;18.558;2023-03-13T13:21:18;26.55;;;15.40;;
42912;SDS011;50720;54.324;18.558;2023-03-13T13:23:50;24.70;;;16.05;;
42912;SDS011;50720;54.324;18.558;2023-03-13T13:32:38;22.30;;;14.32;;
42912;SDS011;50720;54.324;18.558;2023-03-13T13:35:26;25.40;;;13.85;;
42912;SDS011;50720;54.324;18.558;2023-03-13T13:41:21;20.80;;;12.60;;
42912;SDS011;50720;54.324;18.558;2023-03-13T13:46:50;19.60;;;12.27;;
42912;SDS011;50720;54.324;18.558;2023-03-13T13:49:24;17.85;;;12.07;;
42912;SDS011;50720;54.324;18.558;2023-03-13T13:55:00;13.43;;;9.02;;
42912;SDS011;50720;54.324;18.558;2023-03-13T13:57:33;16.20;;;10.40;;
42912;SDS011;50720;54.324;18.558;2023-03-13T14:00:14;13.52;;;9.13;;
42912;SDS011;50720;54.324;18.558;2023-03-13T14:02:48;11.82;;;7.70;;
42912;SDS011;50720;54.324;18.558;2023-03-13T14:05:20;13.43;;;7.75;;
42912;SDS011;50720;54.324;18.558;2023-03-13T14:07:55;13.23;;;8.38;;
42912;SDS011;50720;54.324;18.558;2023-03-13T14:10:29;12.05;;;7.25;;
42912;SDS011;50720;54.324;18.558;2023-03-13T14:13:10;19.83;;;10.07;;
42912;SDS011;50720;54.324;18.558;2023-03-13T14:15:42;11.68;;;6.75;;
42912;SDS011;50720;54.324;18.558;2023-03-13T14:18:20;10.75;;;6.50;;
42912;SDS011;50720;54.324;18.558;2023-03-13T14:20:54;8.27;;;5.75;;
42912;SDS011;50720;54.324;18.558;2023-03-13T14:23:33;13.32;;;6.63;;
42912;SDS011;50720;54.324;18.558;2023-03-13T14:26:09;10.80;;;5.20;;
42912;SDS011;50720;54.324;18.558;2023-03-13T14:28:41;7.57;;;5.47;;
42912;SDS011;50720;54.324;18.558;2023-03-13T14:31:23;9.20;;;5.70;;
42912;SDS011;50720;54.324;18.558;2023-03-13T14:33:55;10.68;;;5.10;;
42912;SDS011;50720;54.324;18.558;2023-03-13T14:36:29;10.73;;;4.72;;
42912;SDS011;50720;54.324;18.558;2023-03-13T14:39:15;11.48;;;5.68;;
42912;SDS011;50720;54.324;18.558;2023-03-13T14:41:47;6.88;;;4.40;;
42912;SDS011;50720;54.324;18.558;2023-03-13T14:44:20;4.80;;;4.25;;
42912;SDS011;50720;54.324;18.558;2023-03-13T14:46:52;7.57;;;5.03;;
42912;SDS011;50720;54.324;18.558;2023-03-13T14:49:25;5.88;;;4.35;;
42912;SDS011;50720;54.324;18.558;2023-03-13T14:52:00;6.78;;;4.00;;
42912;SDS011;50720;54.324;18.558;2023-03-13T14:54:32;6.47;;;3.85;;
42912;SDS011;50720;54.324;18.558;2023-03-13T14:57:03;7.53;;;4.45;;
42912;SDS011;50720;54.324;18.558;2023-03-13T14:59:40;7.10;;;4.57;;
42912;SDS011;50720;54.324;18.558;2023-03-13T15:05:00;5.38;;;3.85;;
42912;SDS011;50720;54.324;18.558;2023-03-13T15:07:36;4.25;;;3.40;;
42912;SDS011;50720;54.324;18.558;2023-03-13T15:10:17;4.20;;;3.03;;
42912;SDS011;50720;54.324;18.558;2023-03-13T15:12:48;6.27;;;3.37;;
42912;SDS011;50720;54.324;18.558;2023-03-13T15:15:19;5.47;;;2.90;;
42912;SDS011;50720;54.324;18.558;2023-03-13T15:17:49;4.22;;;2.60;;
42912;SDS011;50720;54.324;18.558;2023-03-13T15:20:18;5.28;;;2.97;;
42912;SDS011;50720;54.324;18.558;2023-03-13T15:22:50;6.03;;;3.15;;
42912;SDS011;50720;54.324;18.558;2023-03-13T15:25:21;4.97;;;3.00;;